createdAt,value
2017-09-03T00:00:42.854Z,13.90
2017-09-03T00:03:10.417Z,13.80
2017-09-03T00:05:37.934Z,13.80
2017-09-03T00:08:05.453Z,13.80
2017-09-03T00:10:32.976Z,13.80
2017-09-03T00:13:00.475Z,13.80
2017-09-03T00:15:27.992Z,13.80
2017-09-03T00:17:55.546Z,13.90
2017-09-03T00:20:23.071Z,13.80
2017-09-03T00:22:50.593Z,13.80
2017-09-03T00:25:18.112Z,13.70
2017-09-03T00:27:45.688Z,13.70
2017-09-03T00:30:13.184Z,13.80
2017-09-03T00:32:40.693Z,13.80
2017-09-03T00:35:08.212Z,13.80
2017-09-03T00:37:35.728Z,13.80
2017-09-03T00:40:03.265Z,13.70
2017-09-03T00:42:30.777Z,13.80
2017-09-03T00:44:58.383Z,13.80
2017-09-03T00:47:25.940Z,13.80
2017-09-03T00:49:53.435Z,13.70
2017-09-03T00:52:20.966Z,13.60
2017-09-03T00:54:48.469Z,13.60
2017-09-03T00:57:16.080Z,13.60
2017-09-03T00:59:43.605Z,13.60
2017-09-03T01:02:11.109Z,13.60
2017-09-03T01:04:38.665Z,13.60
2017-09-03T01:07:06.169Z,13.60
2017-09-03T01:09:33.773Z,13.60
2017-09-03T01:12:01.284Z,13.60
2017-09-03T01:14:28.785Z,13.70
2017-09-03T01:16:56.416Z,13.70
2017-09-03T01:19:23.924Z,13.70
2017-09-03T01:21:51.451Z,13.60
2017-09-03T01:24:18.964Z,13.60
2017-09-03T01:26:46.482Z,13.60
2017-09-03T01:29:14.029Z,13.50
2017-09-03T01:31:41.589Z,13.50
2017-09-03T01:34:09.116Z,13.50
2017-09-03T01:36:36.618Z,13.40
2017-09-03T01:39:04.142Z,13.40
2017-09-03T01:41:31.661Z,13.30
2017-09-03T01:43:59.177Z,13.20
2017-09-03T01:46:26.708Z,13.20
2017-09-03T01:48:54.989Z,13.30
2017-09-03T01:51:22.574Z,13.20
2017-09-03T01:53:50.100Z,13.30
2017-09-03T01:56:17.604Z,13.30
2017-09-03T01:58:45.125Z,13.30
2017-09-03T02:01:12.708Z,13.20
2017-09-03T02:03:40.217Z,13.20
2017-09-03T02:06:07.735Z,13.20
2017-09-03T02:08:35.264Z,13.20
2017-09-03T02:11:02.837Z,13.10
2017-09-03T02:13:30.346Z,13.10
2017-09-03T02:15:57.876Z,13.10
2017-09-03T02:18:25.381Z,13.10
2017-09-03T02:20:52.921Z,13.10
2017-09-03T02:23:20.513Z,13.10
2017-09-03T02:25:48.073Z,13.10
2017-09-03T02:28:15.670Z,13.10
2017-09-03T02:30:43.168Z,13.00
2017-09-03T02:33:10.718Z,13.00
2017-09-03T02:35:38.232Z,13.00
2017-09-03T02:38:05.806Z,13.00
2017-09-03T02:40:33.308Z,12.90
2017-09-03T02:43:00.803Z,12.90
2017-09-03T02:45:28.325Z,12.80
2017-09-03T02:47:55.847Z,12.70
2017-09-03T02:50:23.343Z,12.70
2017-09-03T02:52:50.876Z,12.70
2017-09-03T02:55:18.381Z,12.60
2017-09-03T02:57:45.941Z,12.40
2017-09-03T03:00:13.459Z,12.40
2017-09-03T03:02:40.961Z,12.30
2017-09-03T03:05:08.481Z,12.30
2017-09-03T03:07:36.059Z,12.40
2017-09-03T03:10:03.601Z,12.40
2017-09-03T03:12:31.191Z,12.50
2017-09-03T03:14:58.687Z,12.50
2017-09-03T03:17:26.216Z,12.40
2017-09-03T03:19:53.724Z,12.50
2017-09-03T03:22:21.256Z,12.50
2017-09-03T03:24:48.758Z,12.50
2017-09-03T03:27:16.319Z,12.50
2017-09-03T03:29:43.845Z,12.50
2017-09-03T03:32:11.363Z,12.50
2017-09-03T03:34:38.904Z,12.40
2017-09-03T03:37:06.416Z,12.40
2017-09-03T03:39:33.908Z,12.40
2017-09-03T03:42:01.480Z,12.50
2017-09-03T03:44:29.034Z,12.40
2017-09-03T03:46:56.683Z,12.40
2017-09-03T03:49:24.220Z,12.40
2017-09-03T03:51:51.768Z,12.40
2017-09-03T03:54:19.280Z,12.40
2017-09-03T03:56:46.784Z,12.40
2017-09-03T03:59:14.308Z,12.40
2017-09-03T04:01:41.824Z,12.40
2017-09-03T04:04:09.387Z,12.40
2017-09-03T04:06:36.922Z,12.40
2017-09-03T04:09:04.430Z,12.40
2017-09-03T04:11:32.068Z,12.40
2017-09-03T04:13:59.592Z,12.40
2017-09-03T04:16:27.090Z,12.50
2017-09-03T04:18:54.619Z,12.50
2017-09-03T04:21:22.124Z,12.50
2017-09-03T04:23:49.616Z,12.60
2017-09-03T04:26:17.133Z,12.60
2017-09-03T04:28:44.634Z,12.60
2017-09-03T04:31:12.157Z,12.70
2017-09-03T04:33:39.659Z,12.70
2017-09-03T04:36:07.236Z,12.70
2017-09-03T04:38:34.797Z,12.70
2017-09-03T04:41:02.304Z,12.70
2017-09-03T04:43:29.820Z,12.70
2017-09-03T04:45:57.341Z,12.70
2017-09-03T04:48:24.871Z,12.70
2017-09-03T04:50:52.384Z,12.80
2017-09-03T04:53:19.953Z,12.80
2017-09-03T04:55:47.476Z,12.80
2017-09-03T04:58:14.978Z,12.80
2017-09-03T05:00:42.520Z,12.80
2017-09-03T05:03:10.024Z,12.80
2017-09-03T05:05:37.612Z,12.80
2017-09-03T05:08:05.121Z,12.80
2017-09-03T05:10:32.646Z,12.80
2017-09-03T05:13:00.184Z,12.90
2017-09-03T05:15:27.681Z,12.90
2017-09-03T05:17:55.205Z,12.90
2017-09-03T05:20:22.696Z,12.90
2017-09-03T05:22:50.233Z,12.90
2017-09-03T05:25:17.741Z,12.90
2017-09-03T05:27:45.356Z,12.90
2017-09-03T05:30:12.919Z,12.90
2017-09-03T05:32:40.420Z,13.00
2017-09-03T05:35:08.033Z,13.00
2017-09-03T05:37:35.537Z,13.10
2017-09-03T05:40:03.086Z,13.20
2017-09-03T05:42:30.604Z,13.20
2017-09-03T05:44:58.133Z,13.10
2017-09-03T05:47:25.657Z,13.10
2017-09-03T05:49:53.157Z,13.10
2017-09-03T05:52:20.688Z,13.10
2017-09-03T05:54:48.191Z,13.10
2017-09-03T05:57:15.725Z,13.10
2017-09-03T05:59:43.249Z,13.10
2017-09-03T06:02:10.764Z,13.20
2017-09-03T06:04:38.324Z,13.20
2017-09-03T06:07:05.848Z,13.30
2017-09-03T06:09:33.433Z,13.30
2017-09-03T06:12:00.960Z,13.40
2017-09-03T06:14:28.451Z,13.40
2017-09-03T06:16:56.016Z,13.50
2017-09-03T06:19:23.536Z,13.50
2017-09-03T06:21:51.141Z,13.50
2017-09-03T06:24:18.669Z,13.50
2017-09-03T06:26:46.178Z,13.50
2017-09-03T06:29:13.692Z,13.60
2017-09-03T06:31:41.269Z,13.70
2017-09-03T06:34:08.765Z,13.70
2017-09-03T06:36:36.296Z,13.80
2017-09-03T06:39:03.800Z,13.90
2017-09-03T06:41:31.323Z,13.90
2017-09-03T06:43:58.838Z,14.00
2017-09-03T06:46:26.392Z,14.00
2017-09-03T06:48:53.895Z,14.10
2017-09-03T06:51:21.402Z,14.10
2017-09-03T06:53:48.994Z,14.20
2017-09-03T06:56:16.496Z,14.20
2017-09-03T06:58:43.991Z,14.30
2017-09-03T07:01:11.521Z,14.40
2017-09-03T07:03:39.018Z,14.50
2017-09-03T07:06:06.552Z,14.50
2017-09-03T07:08:34.058Z,14.60
2017-09-03T07:11:01.572Z,14.70
2017-09-03T07:13:29.118Z,14.70
2017-09-03T07:15:56.692Z,14.80
2017-09-03T07:18:24.179Z,14.90
2017-09-03T07:20:51.708Z,14.90
2017-09-03T07:23:19.218Z,14.90
2017-09-03T07:25:46.759Z,15.00
2017-09-03T07:28:14.257Z,15.00
2017-09-03T07:30:41.755Z,15.00
2017-09-03T07:33:09.280Z,15.00
2017-09-03T07:35:36.773Z,15.10
2017-09-03T07:38:04.294Z,15.10
2017-09-03T07:40:31.856Z,15.10
2017-09-03T07:42:59.381Z,15.20
2017-09-03T07:45:26.904Z,15.20
2017-09-03T07:47:54.404Z,15.30
2017-09-03T07:50:21.900Z,15.30
2017-09-03T07:52:49.436Z,15.30
2017-09-03T07:55:16.940Z,15.30
2017-09-03T07:57:44.480Z,15.20
2017-09-03T08:00:11.988Z,15.30
2017-09-03T08:02:39.532Z,15.30
2017-09-03T08:05:07.153Z,15.30
2017-09-03T08:07:34.655Z,15.40
2017-09-03T08:10:02.207Z,15.50
2017-09-03T08:12:29.830Z,15.50
2017-09-03T08:14:57.400Z,15.50
2017-09-03T08:17:24.905Z,15.50
2017-09-03T08:19:52.498Z,15.60
2017-09-03T08:22:20.026Z,15.60
2017-09-03T08:24:47.600Z,15.60
2017-09-03T08:27:15.120Z,15.60
2017-09-03T08:29:42.649Z,15.70
2017-09-03T08:32:10.199Z,15.70
2017-09-03T08:34:37.718Z,15.80
2017-09-03T08:37:05.250Z,15.90
2017-09-03T08:39:32.737Z,15.90
2017-09-03T08:42:00.261Z,16.00
2017-09-03T08:44:27.782Z,16.10
2017-09-03T08:46:55.277Z,16.10
2017-09-03T08:49:22.910Z,16.20
2017-09-03T08:51:50.548Z,16.20
2017-09-03T08:54:18.091Z,16.20
2017-09-03T08:56:45.594Z,16.30
2017-09-03T08:59:13.115Z,16.30
2017-09-03T09:01:40.646Z,16.30
2017-09-03T09:04:08.236Z,16.30
2017-09-03T09:06:35.813Z,16.30
2017-09-03T09:09:03.308Z,16.40
2017-09-03T09:11:30.812Z,16.50
2017-09-03T09:13:58.382Z,16.50
2017-09-03T09:16:25.939Z,16.60
2017-09-03T09:18:53.447Z,16.70
2017-09-03T09:21:20.980Z,16.60
2017-09-03T09:23:48.551Z,16.60
2017-09-03T09:26:16.059Z,16.70
2017-09-03T09:28:43.569Z,16.80
2017-09-03T09:31:11.138Z,16.80
2017-09-03T09:33:38.638Z,16.80
2017-09-03T09:36:06.180Z,16.90
2017-09-03T09:38:33.703Z,17.00
2017-09-03T09:41:01.225Z,17.00
2017-09-03T09:43:28.735Z,17.00
2017-09-03T09:45:56.297Z,17.00
2017-09-03T09:48:23.804Z,17.10
2017-09-03T09:50:51.448Z,17.10
2017-09-03T09:53:18.970Z,17.10
2017-09-03T09:55:46.478Z,17.10
2017-09-03T09:58:14.030Z,17.10
2017-09-03T10:00:41.534Z,17.10
2017-09-03T10:03:09.048Z,17.20
2017-09-03T10:05:36.573Z,17.20
2017-09-03T10:08:04.098Z,17.30
2017-09-03T10:10:31.633Z,17.50
2017-09-03T10:12:59.185Z,17.70
2017-09-03T10:15:26.692Z,18.00
2017-09-03T10:17:54.290Z,18.20
2017-09-03T10:20:21.844Z,18.30
2017-09-03T10:22:49.364Z,18.50
2017-09-03T10:25:16.869Z,18.70
2017-09-03T10:27:44.372Z,18.60
2017-09-03T10:30:11.880Z,18.60
2017-09-03T10:32:39.385Z,18.60
2017-09-03T10:35:06.905Z,18.60
2017-09-03T10:37:34.411Z,18.80
2017-09-03T10:40:01.950Z,19.00
2017-09-03T10:42:29.446Z,19.20
2017-09-03T10:44:56.964Z,19.40
2017-09-03T10:47:24.592Z,19.60
2017-09-03T10:49:52.103Z,19.90
2017-09-03T10:52:19.596Z,20.10
2017-09-03T10:54:47.975Z,20.40
2017-09-03T10:57:15.493Z,20.60
2017-09-03T10:59:43.096Z,20.70
2017-09-03T11:02:10.613Z,20.60
2017-09-03T11:04:38.198Z,20.50
2017-09-03T11:07:05.736Z,20.30
2017-09-03T11:09:33.232Z,20.20
2017-09-03T11:12:00.789Z,20.40
2017-09-03T11:14:28.342Z,20.60
2017-09-03T11:16:55.875Z,20.90
2017-09-03T11:19:23.369Z,21.10
2017-09-03T11:21:50.865Z,21.30
2017-09-03T11:24:18.379Z,21.60
2017-09-03T11:26:45.913Z,21.80
2017-09-03T11:29:13.432Z,22.00
2017-09-03T11:31:40.923Z,22.10
2017-09-03T11:34:08.436Z,22.30
2017-09-03T11:36:35.980Z,22.40
2017-09-03T11:39:03.515Z,22.50
2017-09-03T11:41:31.058Z,22.60
2017-09-03T11:43:59.326Z,22.10
2017-09-03T11:46:26.891Z,22.10
2017-09-03T11:48:54.454Z,22.10
2017-09-03T11:51:22.008Z,22.20
2017-09-03T11:53:49.530Z,22.30
2017-09-03T11:56:17.030Z,22.40
2017-09-03T11:58:44.550Z,22.70
2017-09-03T12:01:12.058Z,23.00
2017-09-03T12:03:39.571Z,23.30
2017-09-03T12:06:07.101Z,23.50
2017-09-03T12:08:34.597Z,23.60
2017-09-03T12:11:02.171Z,23.90
2017-09-03T12:13:29.700Z,24.00
2017-09-03T12:15:57.280Z,24.00
2017-09-03T12:18:24.801Z,23.80
2017-09-03T12:20:52.300Z,23.70
2017-09-03T12:23:19.818Z,23.80
2017-09-03T12:25:47.308Z,24.10
2017-09-03T12:28:14.804Z,24.30
2017-09-03T12:30:42.328Z,24.30
2017-09-03T12:33:09.847Z,24.30
2017-09-03T12:35:37.364Z,24.30
2017-09-03T12:38:04.850Z,24.50
2017-09-03T12:40:32.393Z,24.60
2017-09-03T12:42:59.917Z,24.70
2017-09-03T12:45:27.421Z,24.70
2017-09-03T12:47:54.957Z,24.60
2017-09-03T12:50:22.459Z,24.20
2017-09-03T12:52:49.985Z,23.80
2017-09-03T12:55:17.506Z,23.50
2017-09-03T12:57:45.000Z,23.20
2017-09-03T13:00:12.519Z,22.90
2017-09-03T13:02:40.111Z,22.70
2017-09-03T13:05:07.664Z,22.40
2017-09-03T13:07:35.167Z,22.30
2017-09-03T13:10:02.677Z,22.40
2017-09-03T13:12:30.232Z,22.60
2017-09-03T13:14:57.725Z,22.40
2017-09-03T13:17:25.248Z,22.10
2017-09-03T13:19:52.743Z,22.00
2017-09-03T13:22:20.268Z,21.70
2017-09-03T13:24:47.789Z,21.30
2017-09-03T13:27:15.284Z,21.20
2017-09-03T13:29:42.807Z,21.00
2017-09-03T13:32:10.383Z,20.90
2017-09-03T13:34:37.909Z,20.90
2017-09-03T13:37:05.449Z,20.90
2017-09-03T13:39:32.987Z,20.80
2017-09-03T13:42:00.513Z,20.80
2017-09-03T13:44:28.040Z,20.70
2017-09-03T13:46:55.684Z,20.60
2017-09-03T13:49:23.182Z,20.60
2017-09-03T13:51:50.767Z,20.60
2017-09-03T13:54:18.285Z,20.60
2017-09-03T13:56:46.567Z,20.60
2017-09-03T13:59:14.090Z,20.60
2017-09-03T14:01:41.604Z,20.60
2017-09-03T14:04:09.194Z,20.60
2017-09-03T14:06:36.725Z,20.60
2017-09-03T14:09:04.236Z,20.70
2017-09-03T14:11:31.757Z,20.80
2017-09-03T14:13:59.270Z,21.00
2017-09-03T14:16:26.856Z,21.30
2017-09-03T14:18:54.369Z,21.50
2017-09-03T14:21:21.973Z,21.50
2017-09-03T14:23:49.471Z,21.50
2017-09-03T14:26:16.984Z,21.50
2017-09-03T14:28:44.514Z,21.40
2017-09-03T14:31:12.022Z,21.30
2017-09-03T14:33:39.569Z,21.30
2017-09-03T14:36:07.058Z,21.30
2017-09-03T14:38:34.582Z,21.40
2017-09-03T14:41:02.077Z,21.50
2017-09-03T14:43:29.590Z,21.60
2017-09-03T14:45:57.106Z,21.80
2017-09-03T14:48:24.622Z,22.00
2017-09-03T14:50:52.146Z,22.20
2017-09-03T14:53:19.709Z,22.40
2017-09-03T14:55:47.198Z,22.50
2017-09-03T14:58:14.735Z,22.50
2017-09-03T15:00:42.222Z,22.40
2017-09-03T15:03:09.765Z,22.40
2017-09-03T15:05:37.268Z,22.60
2017-09-03T15:08:04.833Z,22.50
2017-09-03T15:10:32.431Z,22.40
2017-09-03T15:12:59.928Z,22.30
2017-09-03T15:15:27.429Z,22.10
2017-09-03T15:17:54.954Z,22.00
2017-09-03T15:20:22.472Z,21.90
2017-09-03T15:22:49.989Z,21.70
2017-09-03T15:25:17.526Z,21.80
2017-09-03T15:27:45.854Z,21.80
2017-09-03T15:30:13.392Z,21.90
2017-09-03T15:32:40.909Z,21.90
2017-09-03T15:35:08.465Z,22.00
2017-09-03T15:37:35.966Z,22.20
2017-09-03T15:40:03.497Z,22.30
2017-09-03T15:42:30.999Z,22.30
2017-09-03T15:44:58.553Z,22.20
2017-09-03T15:47:26.091Z,22.10
2017-09-03T15:49:53.614Z,22.00
2017-09-03T15:52:21.145Z,21.90
2017-09-03T15:54:48.782Z,21.70
2017-09-03T15:57:16.313Z,21.50
2017-09-03T15:59:43.866Z,21.40
2017-09-03T16:02:11.375Z,21.20
2017-09-03T16:04:38.909Z,21.10
2017-09-03T16:07:06.410Z,21.00
2017-09-03T16:09:34.016Z,20.90
2017-09-03T16:12:01.533Z,20.90
2017-09-03T16:14:29.037Z,20.80
2017-09-03T16:16:56.577Z,20.70
2017-09-03T16:19:24.211Z,20.60
2017-09-03T16:21:51.721Z,20.50
2017-09-03T16:24:19.244Z,20.40
2017-09-03T16:26:46.812Z,20.30
2017-09-03T16:29:14.346Z,20.30
2017-09-03T16:31:41.895Z,20.10
2017-09-03T16:34:09.456Z,20.10
2017-09-03T16:36:36.989Z,20.00
2017-09-03T16:39:04.493Z,19.90
2017-09-03T16:41:32.093Z,19.90
2017-09-03T16:43:59.621Z,19.90
2017-09-03T16:46:27.142Z,19.80
2017-09-03T16:48:54.652Z,19.80
2017-09-03T16:51:22.174Z,19.80
2017-09-03T16:53:49.679Z,19.80
2017-09-03T16:56:17.207Z,19.70
2017-09-03T16:58:44.722Z,19.70
2017-09-03T17:01:12.221Z,19.60
2017-09-03T17:03:39.748Z,19.60
2017-09-03T17:06:07.251Z,19.60
2017-09-03T17:08:34.768Z,19.50
2017-09-03T17:11:02.327Z,19.50
2017-09-03T17:13:29.847Z,19.40
2017-09-03T17:15:57.366Z,19.40
2017-09-03T17:18:24.888Z,19.40
2017-09-03T17:20:52.999Z,19.30
2017-09-03T17:23:20.503Z,19.20
2017-09-03T17:25:48.033Z,19.10
2017-09-03T17:28:15.551Z,19.10
2017-09-03T17:30:46.940Z,19.00
2017-09-03T17:33:14.445Z,18.90
2017-09-03T17:35:44.451Z,18.90
2017-09-03T17:38:15.604Z,18.80
2017-09-03T17:40:44.025Z,18.70
2017-09-03T17:46:10.983Z,18.50
2017-09-03T17:48:38.560Z,18.40
2017-09-03T17:51:06.068Z,18.30
2017-09-03T17:53:33.593Z,18.20
2017-09-03T17:56:01.105Z,18.10
2017-09-03T17:58:28.617Z,18.00
2017-09-03T18:00:56.160Z,18.00
2017-09-03T18:03:23.656Z,17.90
2017-09-03T18:05:51.156Z,17.80
2017-09-03T18:08:18.672Z,17.70
2017-09-03T18:10:46.216Z,17.70
2017-09-03T18:13:13.745Z,17.60
2017-09-03T18:15:41.250Z,17.60
2017-09-03T18:18:08.819Z,17.50
2017-09-03T18:20:36.341Z,17.40
2017-09-03T18:23:03.845Z,17.40
2017-09-03T18:25:31.378Z,17.30
2017-09-03T18:27:58.900Z,17.30
2017-09-03T18:30:37.292Z,17.20
2017-09-03T18:33:04.816Z,17.20
2017-09-03T18:35:35.860Z,17.10
2017-09-03T18:38:03.983Z,17.10
2017-09-03T18:40:33.161Z,17.00
2017-09-03T18:43:01.329Z,17.00
2017-09-03T18:45:31.424Z,16.90
2017-09-03T18:47:58.940Z,16.90
2017-09-03T18:50:27.365Z,16.80
2017-09-03T18:53:00.537Z,16.80
2017-09-03T18:55:28.567Z,16.70
2017-09-03T18:57:56.668Z,16.60
2017-09-03T19:00:24.208Z,16.60
2017-09-03T19:02:54.592Z,16.50
2017-09-03T19:05:22.112Z,16.50
2017-09-03T19:07:49.612Z,16.40
2017-09-03T19:10:17.142Z,16.30
2017-09-03T19:12:44.668Z,16.30
2017-09-03T19:15:12.213Z,16.20
2017-09-03T19:17:39.732Z,16.20
2017-09-03T19:20:07.274Z,16.20
2017-09-03T19:22:34.781Z,16.10
2017-09-03T19:25:02.275Z,16.10
2017-09-03T19:27:31.946Z,16.10
2017-09-03T19:29:59.460Z,16.00
2017-09-03T19:32:27.003Z,16.10
2017-09-03T19:34:54.517Z,16.00
2017-09-03T19:37:22.041Z,16.00
2017-09-03T19:39:49.573Z,16.00
2017-09-03T19:42:17.152Z,15.90
2017-09-03T19:44:44.672Z,15.90
2017-09-03T19:47:12.186Z,15.80
2017-09-03T19:49:39.702Z,15.80
2017-09-03T19:52:07.241Z,15.80
2017-09-03T19:54:34.832Z,15.70
2017-09-03T19:57:02.352Z,15.70
2017-09-03T19:59:29.849Z,15.70
2017-09-03T20:01:57.590Z,15.70
2017-09-03T20:04:25.101Z,15.70
2017-09-03T20:06:52.600Z,15.70
2017-09-03T20:09:20.156Z,15.60
2017-09-03T20:11:47.769Z,15.60
2017-09-03T20:14:15.268Z,15.60
2017-09-03T20:16:42.805Z,15.60
2017-09-03T20:19:10.344Z,15.50
2017-09-03T20:21:37.887Z,15.50
2017-09-03T20:24:05.402Z,15.50
2017-09-03T20:26:32.937Z,15.40
2017-09-03T20:29:00.478Z,15.30
2017-09-03T20:31:27.984Z,15.30
2017-09-03T20:33:55.524Z,15.30
2017-09-03T20:36:23.021Z,15.20
2017-09-03T20:38:50.526Z,15.20
2017-09-03T20:41:18.063Z,15.20
2017-09-03T20:43:45.581Z,15.10
2017-09-03T20:46:13.153Z,15.10
2017-09-03T20:48:40.714Z,15.00
2017-09-03T20:51:08.946Z,15.00
2017-09-03T20:53:36.543Z,14.90
2017-09-03T20:56:04.045Z,14.90
2017-09-03T20:58:31.553Z,14.90
2017-09-03T21:00:59.120Z,14.90
2017-09-03T21:03:26.617Z,14.80
2017-09-03T21:05:54.128Z,14.80
2017-09-03T21:08:21.662Z,14.80
2017-09-03T21:10:49.172Z,14.80
2017-09-03T21:13:16.696Z,14.80
2017-09-03T21:15:44.227Z,14.70
2017-09-03T21:18:11.742Z,14.60
2017-09-03T21:20:39.255Z,14.60
2017-09-03T21:23:06.750Z,14.50
2017-09-03T21:25:34.414Z,14.50
2017-09-03T21:28:01.919Z,14.50
2017-09-03T21:30:29.442Z,14.40
2017-09-03T21:32:56.947Z,14.40
2017-09-03T21:35:24.550Z,14.40
2017-09-03T21:37:52.073Z,14.40
2017-09-03T21:40:19.571Z,14.40
2017-09-03T21:42:47.096Z,14.50
2017-09-03T21:45:14.606Z,14.50
2017-09-03T21:47:42.132Z,14.50
2017-09-03T21:50:09.621Z,14.50
2017-09-03T21:52:37.233Z,14.50
2017-09-03T21:55:04.743Z,14.50
2017-09-03T21:57:32.241Z,14.40
2017-09-03T21:59:59.773Z,14.40
2017-09-03T22:02:27.372Z,14.40
2017-09-03T22:04:54.876Z,14.40
2017-09-03T22:07:22.394Z,14.30
2017-09-03T22:09:49.892Z,14.30
2017-09-03T22:12:17.433Z,14.30
2017-09-03T22:14:44.948Z,14.20
2017-09-03T22:17:12.502Z,14.20
2017-09-03T22:19:40.001Z,14.20
2017-09-03T22:22:07.495Z,14.20
2017-09-03T22:24:35.052Z,14.20
2017-09-03T22:27:02.561Z,14.20
2017-09-03T22:29:30.056Z,14.10
2017-09-03T22:31:57.669Z,14.10
2017-09-03T22:34:25.165Z,14.10
2017-09-03T22:36:52.777Z,14.20
2017-09-03T22:39:20.332Z,14.10
2017-09-03T22:41:47.897Z,14.10
2017-09-03T22:44:15.413Z,14.10
2017-09-03T22:46:43.012Z,14.10
2017-09-03T22:49:10.545Z,14.10
2017-09-03T22:51:38.124Z,14.10
2017-09-03T22:54:05.652Z,14.00
2017-09-03T22:56:33.144Z,14.00
2017-09-03T22:59:00.643Z,13.90
2017-09-03T23:01:28.158Z,13.90
2017-09-03T23:03:55.661Z,13.90
2017-09-03T23:06:23.194Z,13.90
2017-09-03T23:08:50.692Z,14.00
2017-09-03T23:11:18.280Z,13.90
2017-09-03T23:13:45.801Z,13.90
2017-09-03T23:16:13.407Z,13.80
2017-09-03T23:18:40.948Z,13.70
2017-09-03T23:21:08.513Z,13.70
2017-09-03T23:23:36.084Z,13.70
2017-09-03T23:26:03.600Z,13.70
2017-09-03T23:28:31.101Z,13.70
2017-09-03T23:30:58.660Z,13.70
2017-09-03T23:33:26.152Z,13.70
2017-09-03T23:35:53.768Z,13.60
2017-09-03T23:38:21.266Z,13.60
2017-09-03T23:40:48.761Z,13.60
2017-09-03T23:43:16.272Z,13.60
2017-09-03T23:45:43.813Z,13.50
2017-09-03T23:48:11.348Z,13.50
2017-09-03T23:50:38.886Z,13.50
2017-09-03T23:53:06.397Z,13.50
2017-09-03T23:55:33.936Z,13.40
2017-09-03T23:58:01.424Z,13.40
